Time;durP1;ratioP1;P1;durP2;ratioP2;P2;SDS_P1;SDS_P2;PMS_P1;PMS_P2;Temp;Humidity;BMP_temperature;BMP_pressure;BME280_temperature;BME280_humidity;BME280_pressure;Samples;Min_cycle;Max_cycle;Signal;HPM_P1;HPM_P2
2021/01/29 06:02:34;;;;;;;22.90;11.60;;;0.50;97.30;;;;;;5317778;23;20871;-73
2021/01/29 06:05:40;;;;;;;21.07;10.00;;;0.50;97.30;;;;;;4934061;29;20470;-74
2021/01/29 06:08:29;;;;;;;26.50;10.90;;;0.50;97.30;;;;;;4914252;29;20451;-73
2021/01/29 06:11:26;;;;;;;25.80;11.10;;;0.50;97.30;;;;;;4928576;29;20905;-73
2021/01/29 06:14:10;;;;;;;24.20;11.23;;;0.50;97.30;;;;;;4915011;29;21059;-73
2021/01/29 06:16:47;;;;;;;26.27;12.33;;;0.50;97.30;;;;;;4915622;29;20499;-72
2021/01/29 06:19:28;;;;;;;29.60;13.30;;;0.50;97.30;;;;;;4915051;29;20420;-73
2021/01/29 06:22:14;;;;;;;26.00;12.17;;;0.60;97.30;;;;;;4916528;29;20425;-73
2021/01/29 06:25:08;;;;;;;26.70;11.63;;;0.60;97.30;;;;;;4915202;29;20989;-73
2021/01/29 06:27:52;;;;;;;28.37;12.23;;;0.60;97.30;;;;;;4915058;29;20926;-72
2021/01/29 06:30:32;;;;;;;33.17;11.57;;;0.60;97.30;;;;;;4916844;29;20412;-71
2021/01/29 06:33:04;;;;;;;24.77;10.90;;;0.60;97.30;;;;;;4914470;29;20818;-73
2021/01/29 06:35:54;;;;;;;27.17;12.17;;;0.60;97.30;;;;;;4914985;29;20961;-73
2021/01/29 06:38:35;;;;;;;39.13;15.93;;;0.60;97.30;;;;;;4916942;29;20413;-73
2021/01/29 06:41:20;;;;;;;34.30;13.20;;;0.60;97.30;;;;;;4918497;29;20432;-73
2021/01/29 06:44:30;;;;;;;27.50;12.90;;;0.60;97.30;;;;;;4921191;29;20421;-73
2021/01/29 06:47:27;;;;;;;30.90;12.33;;;0.60;97.30;;;;;;4935505;29;20686;-75
2021/01/29 06:50:20;;;;;;;25.83;12.00;;;0.60;97.30;;;;;;4927304;29;20427;-73
2021/01/29 06:53:08;;;;;;;32.37;12.40;;;0.60;97.30;;;;;;4922136;29;20508;-74
2021/01/29 06:55:55;;;;;;;33.10;13.20;;;0.60;97.30;;;;;;4922717;29;20428;-73
2021/01/29 06:58:59;;;;;;;29.53;12.50;;;0.70;97.30;;;;;;4928083;29;20454;-73
2021/01/29 07:01:52;;;;;;;34.93;13.60;;;0.70;97.30;;;;;;4930201;29;20454;-73
2021/01/29 07:04:39;;;;;;;31.40;13.10;;;0.70;97.30;;;;;;4926871;29;20953;-73
2021/01/29 07:07:11;;;;;;;28.40;11.83;;;0.70;97.30;;;;;;4929420;29;20432;-73
2021/01/29 07:10:15;;;;;;;32.23;12.63;;;0.70;97.30;;;;;;4929113;29;20905;-73
2021/01/29 07:12:59;;;;;;;26.20;11.60;;;0.70;97.30;;;;;;4931508;29;20512;-73
2021/01/29 07:15:53;;;;;;;30.97;11.97;;;0.70;97.30;;;;;;4923757;29;20417;-73
2021/01/29 07:18:52;;;;;;;31.87;12.63;;;0.70;97.30;;;;;;4925510;29;20848;-74
2021/01/29 07:21:21;;;;;;;28.67;12.23;;;0.70;97.30;;;;;;4929227;29;20530;-73
2021/01/29 07:24:35;;;;;;;30.10;11.47;;;0.70;97.30;;;;;;4929086;29;20504;-73
2021/01/29 07:27:22;;;;;;;29.57;12.07;;;0.70;97.30;;;;;;4928995;29;20517;-73
2021/01/29 07:30:06;;;;;;;25.80;11.77;;;0.70;97.30;;;;;;4918787;29;20420;-73
2021/01/29 07:32:43;;;;;;;27.20;11.20;;;0.70;97.30;;;;;;4916859;29;20540;-72
2021/01/29 07:35:30;;;;;;;28.77;12.00;;;0.70;97.30;;;;;;4919144;29;20437;-72
2021/01/29 07:38:14;;;;;;;26.70;11.30;;;0.70;97.30;;;;;;4916095;29;20427;-73
2021/01/29 07:41:17;;;;;;;25.43;11.07;;;0.70;97.30;;;;;;4917798;29;20457;-73
2021/01/29 07:44:21;;;;;;;24.80;11.17;;;0.70;97.30;;;;;;4918710;29;20779;-73
2021/01/29 07:47:04;;;;;;;28.67;11.93;;;0.70;97.30;;;;;;4863748;29;20446;-73
2021/01/29 07:49:45;;;;;;;28.57;11.37;;;0.70;97.30;;;;;;4879154;29;20445;-73
2021/01/29 07:52:11;;;;;;;25.43;10.47;;;0.70;97.30;;;;;;4899121;29;20447;-73
2021/01/29 07:54:53;;;;;;;34.37;13.33;;;0.60;97.30;;;;;;4949489;29;20836;-73
2021/01/29 07:57:44;;;;;;;28.50;12.00;;;0.60;97.30;;;;;;4918498;29;20254;-73
2021/01/29 08:00:41;;;;;;;30.90;12.33;;;0.60;97.30;;;;;;4918317;29;20420;-73
2021/01/29 08:03:25;;;;;;;23.60;10.80;;;0.60;97.30;;;;;;4949742;29;20443;-73
2021/01/29 08:06:12;;;;;;;23.53;11.13;;;0.60;97.30;;;;;;4917022;29;20567;-73
2021/01/29 08:08:56;;;;;;;24.80;10.57;;;0.60;97.30;;;;;;4917599;29;20425;-73
2021/01/29 08:11:24;;;;;;;26.77;12.30;;;0.60;97.30;;;;;;4916841;29;20444;-73
2021/01/29 08:13:59;;;;;;;29.20;11.77;;;0.60;97.30;;;;;;4918182;29;20460;-73
2021/01/29 08:16:34;;;;;;;26.00;11.10;;;0.60;97.30;;;;;;4949115;29;20427;-73
2021/01/29 08:19:23;;;;;;;29.77;13.17;;;0.60;97.30;;;;;;4948760;29;20463;-73
2021/01/29 08:21:48;;;;;;;31.13;11.67;;;0.60;97.30;;;;;;4916801;29;20441;-73
2021/01/29 08:24:39;;;;;;;31.33;13.23;;;0.60;97.30;;;;;;4949175;29;20429;-72
2021/01/29 08:27:25;;;;;;;28.07;12.17;;;0.50;97.30;;;;;;4918327;29;20516;-73
2021/01/29 08:30:21;;;;;;;26.70;11.83;;;0.50;97.30;;;;;;4917909;29;20512;-72
2021/01/29 08:33:14;;;;;;;25.50;11.00;;;0.50;97.30;;;;;;4948458;29;20823;-73
2021/01/29 08:35:55;;;;;;;27.70;11.30;;;0.50;97.30;;;;;;4948405;29;20440;-73
2021/01/29 08:38:35;;;;;;;33.57;12.87;;;0.50;97.30;;;;;;4949390;29;20424;-73
2021/01/29 08:41:07;;;;;;;32.00;12.13;;;0.50;97.30;;;;;;4917405;29;20434;-73
2021/01/29 08:44:15;;;;;;;28.70;12.50;;;0.50;97.30;;;;;;4917878;29;20413;-73
2021/01/29 08:46:47;;;;;;;33.47;13.90;;;0.50;97.30;;;;;;4948662;29;20425;-73
2021/01/29 08:49:51;;;;;;;30.30;12.57;;;0.50;97.30;;;;;;4917708;29;20413;-73
2021/01/29 08:52:38;;;;;;;31.97;12.07;;;0.60;97.30;;;;;;4862785;29;20442;-73
2021/01/29 08:55:31;;;;;;;32.93;13.50;;;0.60;97.30;;;;;;4878064;29;20438;-73
2021/01/29 08:58:29;;;;;;;39.47;13.07;;;0.60;97.30;;;;;;4908227;29;20409;-73
2021/01/29 09:01:31;;;;;;;32.40;13.87;;;0.60;97.30;;;;;;4916346;29;20443;-74
2021/01/29 09:04:25;;;;;;;29.57;13.60;;;0.60;97.30;;;;;;4914835;29;20516;-73
2021/01/29 09:06:53;;;;;;;35.80;14.13;;;0.70;97.30;;;;;;4917726;29;20914;-73
2021/01/29 09:09:24;;;;;;;37.10;14.30;;;0.70;97.30;;;;;;4916291;29;20508;-73
2021/01/29 09:11:52;;;;;;;36.70;13.80;;;0.70;97.30;;;;;;4915658;29;20432;-73
2021/01/29 09:14:22;;;;;;;35.87;14.60;;;0.70;97.30;;;;;;4916606;29;20506;-73
2021/01/29 09:16:50;;;;;;;34.20;14.73;;;0.70;97.30;;;;;;4917144;29;20424;-73
2021/01/29 09:19:19;;;;;;;35.03;14.43;;;0.70;97.30;;;;;;4915950;29;20463;-72
2021/01/29 09:22:17;;;;;;;34.07;13.60;;;0.70;97.30;;;;;;4916138;29;20519;-72
2021/01/29 09:25:05;;;;;;;31.30;13.40;;;0.70;97.30;;;;;;4917076;29;20427;-73
2021/01/29 09:28:02;;;;;;;32.10;12.97;;;0.70;97.30;;;;;;4916113;29;20413;-73
2021/01/29 09:30:50;;;;;;;32.00;13.20;;;0.70;97.30;;;;;;4916059;29;20413;-73
2021/01/29 09:33:31;;;;;;;29.70;12.50;;;0.70;97.30;;;;;;4915669;29;20825;-73
2021/01/29 09:35:56;;;;;;;33.37;13.17;;;0.70;97.30;;;;;;4916698;29;20536;-73
2021/01/29 09:38:26;;;;;;;29.53;12.83;;;0.70;97.30;;;;;;4915646;29;20452;-73
2021/01/29 09:40:58;;;;;;;28.70;11.70;;;0.70;97.30;;;;;;4916789;29;20189;-73
2021/01/29 09:43:46;;;;;;;27.60;12.07;;;0.70;97.30;;;;;;4917419;29;20918;-72
2021/01/29 09:46:21;;;;;;;31.33;12.87;;;0.70;97.30;;;;;;4916486;29;20471;-73
2021/01/29 09:48:50;;;;;;;29.87;12.37;;;0.70;97.30;;;;;;4925972;29;20416;-73
2021/01/29 09:51:42;;;;;;;33.63;12.90;;;0.70;97.30;;;;;;4902049;29;20819;-73
2021/01/29 09:54:21;;;;;;;28.50;12.53;;;0.80;97.30;;;;;;4897006;29;20538;-73
2021/01/29 09:56:55;;;;;;;27.20;12.53;;;0.80;97.30;;;;;;4898220;29;20412;-72
2021/01/29 09:59:40;;;;;;;26.73;11.60;;;0.80;97.30;;;;;;4898146;29;20405;-73
2021/01/29 10:02:41;;;;;;;27.77;12.20;;;0.80;97.30;;;;;;4897571;29;20449;-73
2021/01/29 10:05:39;;;;;;;28.80;11.80;;;0.80;97.30;;;;;;4913240;29;20429;-73
2021/01/29 10:08:05;;;;;;;30.20;11.70;;;0.80;97.30;;;;;;4896200;29;20426;-74
2021/01/29 10:11:21;;;;;;;30.60;12.70;;;0.80;97.30;;;;;;4896678;29;20791;-73
2021/01/29 10:13:52;;;;;;;37.03;13.67;;;0.80;97.30;;;;;;4889527;29;20236;-73
2021/01/29 10:16:27;;;;;;;29.33;12.43;;;0.90;97.30;;;;;;4899076;29;20484;-73
2021/01/29 10:19:30;;;;;;;34.30;13.57;;;0.90;97.30;;;;;;4901966;29;20479;-73
2021/01/29 10:21:59;;;;;;;31.20;13.17;;;0.90;97.30;;;;;;4888355;29;20484;-73
2021/01/29 10:24:34;;;;;;;29.33;13.37;;;1.00;97.30;;;;;;4901447;29;20412;-73
2021/01/29 10:27:12;;;;;;;35.03;13.10;;;0.90;97.30;;;;;;4902048;29;20404;-72
2021/01/29 10:29:44;;;;;;;30.03;12.07;;;1.00;97.30;;;;;;4900103;29;20418;-73
2021/01/29 10:32:22;;;;;;;30.87;13.53;;;0.90;97.30;;;;;;4901293;29;20433;-72
2021/01/29 10:35:08;;;;;;;31.90;14.97;;;0.90;97.30;;;;;;4901797;29;20778;-73
2021/01/29 10:37:42;;;;;;;35.17;15.53;;;0.90;97.30;;;;;;4901238;29;20461;-73
2021/01/29 10:40:27;;;;;;;28.07;13.50;;;0.90;97.30;;;;;;4901257;29;20417;-72
2021/01/29 10:43:20;;;;;;;40.80;15.90;;;0.90;97.30;;;;;;4899515;29;20449;-72
2021/01/29 10:46:15;;;;;;;26.10;13.30;;;0.90;97.30;;;;;;4900991;29;20418;-72
2021/01/29 10:49:06;;;;;;;36.47;14.53;;;0.90;97.30;;;;;;4900652;29;21086;-72
2021/01/29 10:51:53;;;;;;;33.47;14.50;;;0.90;97.30;;;;;;4899366;29;20914;-72
2021/01/29 10:54:22;;;;;;;37.93;15.53;;;1.00;97.30;;;;;;4900834;29;20532;-72
2021/01/29 10:57:11;;;;;;;36.87;16.10;;;1.00;97.30;;;;;;4900176;29;20480;-72
2021/01/29 11:00:00;;;;;;;33.33;14.03;;;1.00;97.30;;;;;;4899828;29;20967;-72
2021/01/29 11:03:01;;;;;;;30.67;14.93;;;1.00;97.30;;;;;;4900911;29;20453;-72
2021/01/29 11:05:29;;;;;;;32.47;13.90;;;1.00;97.30;;;;;;4900571;29;20962;-72
2021/01/29 11:08:10;;;;;;;33.00;15.00;;;1.00;97.30;;;;;;4899293;29;20928;-73
2021/01/29 11:10:37;;;;;;;33.93;14.20;;;1.10;97.30;;;;;;4900056;29;20469;-73
2021/01/29 11:13:09;;;;;;;30.50;14.10;;;1.00;97.30;;;;;;4898941;29;20464;-72
2021/01/29 11:15:45;;;;;;;31.53;14.60;;;1.00;97.30;;;;;;4899291;29;20447;-72
2021/01/29 11:18:27;;;;;;;37.10;14.50;;;1.10;97.30;;;;;;4901028;29;20441;-72
2021/01/29 11:21:07;;;;;;;30.27;13.63;;;1.10;97.30;;;;;;4899003;29;20445;-72
2021/01/29 11:23:44;;;;;;;30.77;13.60;;;1.00;97.30;;;;;;4900387;29;20906;-72
2021/01/29 11:26:17;;;;;;;27.03;12.23;;;1.00;97.30;;;;;;4900593;29;20820;-71
2021/01/29 11:29:01;;;;;;;27.70;12.40;;;1.00;97.30;;;;;;4898951;29;20425;-72
2021/01/29 11:31:32;;;;;;;25.47;11.30;;;1.00;97.30;;;;;;4900517;29;20435;-71
2021/01/29 11:34:00;;;;;;;25.13;11.37;;;1.00;97.30;;;;;;4900061;29;20465;-72
2021/01/29 11:36:46;;;;;;;27.17;10.93;;;1.00;97.30;;;;;;4899196;29;20435;-71
2021/01/29 11:39:24;;;;;;;26.30;11.37;;;1.10;97.30;;;;;;4899921;29;21014;-71
2021/01/29 11:41:59;;;;;;;24.17;12.13;;;1.10;97.30;;;;;;4900058;29;20441;-72
2021/01/29 11:44:48;;;;;;;24.47;11.50;;;1.00;97.30;;;;;;4899220;29;20437;-72
2021/01/29 11:47:29;;;;;;;21.87;10.40;;;1.00;97.30;;;;;;4899418;29;20433;-72
2021/01/29 11:49:58;;;;;;;24.07;11.30;;;1.00;97.30;;;;;;4908617;29;20492;-72
2021/01/29 11:52:46;;;;;;;21.53;11.00;;;1.00;97.30;;;;;;4918833;29;20515;-72
2021/01/29 11:55:25;;;;;;;21.83;10.03;;;1.00;97.30;;;;;;4919082;29;20409;-72
2021/01/29 11:58:28;;;;;;;21.23;10.07;;;1.00;97.30;;;;;;4917409;29;20472;-72
2021/01/29 12:01:10;;;;;;;25.13;11.27;;;1.00;97.30;;;;;;4918794;29;20881;-71
2021/01/29 12:03:38;;;;;;;22.33;10.00;;;1.00;97.30;;;;;;4917283;29;20432;-72
2021/01/29 12:06:29;;;;;;;22.20;11.27;;;1.00;97.30;;;;;;4917371;29;20435;-72
2021/01/29 12:09:23;;;;;;;21.67;11.23;;;1.10;97.30;;;;;;4919328;29;20456;-72
2021/01/29 12:12:02;;;;;;;20.87;10.00;;;1.10;97.30;;;;;;4917856;29;20527;-71
2021/01/29 12:14:54;;;;;;;21.23;9.47;;;1.10;97.30;;;;;;4918786;29;20888;-70
2021/01/29 12:17:27;;;;;;;17.57;9.73;;;1.10;97.30;;;;;;4912608;29;20421;-71
2021/01/29 12:20:00;;;;;;;20.50;9.40;;;1.10;97.30;;;;;;4916907;29;20417;-72
2021/01/29 12:22:37;;;;;;;14.83;8.83;;;1.00;97.30;;;;;;4917692;29;20441;-72
2021/01/29 12:25:40;;;;;;;18.60;9.50;;;1.00;97.30;;;;;;4919621;29;20428;-72
2021/01/29 12:28:19;;;;;;;14.20;8.30;;;1.00;97.30;;;;;;4927245;29;20487;-72
2021/01/29 12:31:04;;;;;;;17.20;8.73;;;1.00;97.30;;;;;;4918309;29;20440;-72
2021/01/29 12:33:41;;;;;;;12.77;7.57;;;1.10;97.30;;;;;;4917662;29;20459;-72
2021/01/29 12:36:11;;;;;;;18.50;9.47;;;1.10;97.30;;;;;;4918264;29;20404;-72
2021/01/29 12:39:29;;;;;;;15.63;8.47;;;1.10;97.30;;;;;;4917663;29;20910;-72
2021/01/29 12:42:11;;;;;;;16.37;8.67;;;1.10;97.30;;;;;;4905764;29;20444;-72
2021/01/29 12:44:41;;;;;;;16.10;8.73;;;1.10;97.30;;;;;;4918552;29;20483;-72
2021/01/29 12:47:14;;;;;;;15.73;8.93;;;1.10;97.30;;;;;;4916414;29;20420;-72
2021/01/29 12:50:08;;;;;;;13.10;8.03;;;1.10;97.30;;;;;;4916484;29;20977;-72
2021/01/29 12:52:41;;;;;;;17.57;9.07;;;1.10;97.30;;;;;;4917836;29;20922;-72
2021/01/29 12:55:34;;;;;;;15.50;8.77;;;1.10;97.30;;;;;;4916273;29;20934;-72
2021/01/29 12:58:03;;;;;;;13.83;8.00;;;1.10;97.30;;;;;;4917794;29;21024;-72
2021/01/29 13:00:38;;;;;;;19.63;9.13;;;1.10;97.30;;;;;;4917935;29;20413;-72
2021/01/29 13:03:23;;;;;;;15.27;9.97;;;1.10;97.30;;;;;;4915242;29;20539;-73
2021/01/29 13:06:07;;;;;;;15.43;8.50;;;1.10;97.30;;;;;;4913028;29;20424;-72
2021/01/29 13:09:07;;;;;;;15.20;8.07;;;1.10;97.30;;;;;;4912523;29;20405;-73
2021/01/29 13:11:46;;;;;;;11.70;8.00;;;1.10;97.30;;;;;;4919066;29;20446;-72
2021/01/29 13:14:37;;;;;;;19.60;9.57;;;1.00;97.30;;;;;;4923341;29;20455;-72
2021/01/29 13:17:32;;;;;;;15.00;8.40;;;1.00;97.30;;;;;;4934534;29;20434;-72
2021/01/29 13:20:18;;;;;;;12.20;7.30;;;1.00;97.30;;;;;;4935199;29;20415;-72
2021/01/29 13:22:55;;;;;;;14.70;7.47;;;1.00;97.30;;;;;;4934630;29;20455;-72
2021/01/29 13:25:28;;;;;;;15.83;8.50;;;1.00;97.30;;;;;;4935097;29;20424;-72
2021/01/29 13:28:07;;;;;;;16.50;7.93;;;1.00;97.30;;;;;;4936178;29;20415;-72
2021/01/29 13:30:38;;;;;;;15.20;9.17;;;1.10;97.30;;;;;;4935985;29;20427;-72
2021/01/29 13:33:11;;;;;;;12.27;7.63;;;1.10;97.30;;;;;;4936611;29;20451;-72
2021/01/29 13:35:40;;;;;;;11.33;7.67;;;1.10;97.30;;;;;;4936232;29;20412;-72
2021/01/29 13:38:05;;;;;;;14.63;8.93;;;1.10;97.30;;;;;;4934518;29;20805;-72
2021/01/29 13:40:31;;;;;;;13.87;8.57;;;1.10;97.30;;;;;;4935511;29;20444;-71
2021/01/29 13:43:07;;;;;;;17.40;8.40;;;1.20;97.30;;;;;;4934279;29;20282;-72
2021/01/29 13:45:34;;;;;;;15.50;8.47;;;1.20;97.30;;;;;;4934722;29;20187;-72
2021/01/29 13:48:13;;;;;;;13.40;8.10;;;1.20;97.30;;;;;;4935483;29;20999;-72
2021/01/29 13:50:50;;;;;;;13.47;8.23;;;1.20;97.30;;;;;;4924503;29;20502;-72
2021/01/29 13:53:38;;;;;;;12.73;7.93;;;1.20;97.30;;;;;;4919761;29;20482;-71
2021/01/29 13:56:25;;;;;;;12.90;8.20;;;1.20;97.30;;;;;;4919881;29;20416;-71
2021/01/29 13:59:07;;;;;;;16.90;8.93;;;1.20;97.30;;;;;;4919189;29;20417;-72
2021/01/29 14:01:48;;;;;;;14.70;8.87;;;1.20;97.30;;;;;;4919697;29;20804;-72
2021/01/29 14:04:21;;;;;;;13.50;8.47;;;1.30;97.30;;;;;;4920668;29;20472;-72
2021/01/29 14:06:48;;;;;;;16.97;8.97;;;1.30;97.30;;;;;;4919361;29;20507;-72
2021/01/29 14:09:16;;;;;;;17.23;10.77;;;1.30;97.30;;;;;;4919712;29;20421;-71
2021/01/29 14:11:59;;;;;;;16.43;9.43;;;1.30;97.30;;;;;;4919130;29;20445;-73
2021/01/29 14:14:52;;;;;;;19.33;10.37;;;1.30;97.30;;;;;;4919103;29;20805;-72
2021/01/29 14:17:37;;;;;;;17.67;10.37;;;1.30;97.30;;;;;;4921097;29;20496;-71
2021/01/29 14:20:33;;;;;;;16.80;10.93;;;1.40;97.30;;;;;;4920162;29;20940;-72
2021/01/29 14:23:14;;;;;;;15.17;9.10;;;1.40;97.30;;;;;;4919319;29;20435;-73
2021/01/29 14:26:03;;;;;;;20.53;8.13;;;1.40;97.30;;;;;;4920217;29;20455;-71
2021/01/29 14:28:37;;;;;;;12.30;8.20;;;1.40;97.30;;;;;;4920141;29;20919;-72
2021/01/29 14:31:19;;;;;;;13.37;7.70;;;1.40;97.30;;;;;;4919444;29;20452;-72
2021/01/29 14:34:22;;;;;;;12.60;7.83;;;1.40;97.30;;;;;;4919781;29;20973;-72
2021/01/29 14:37:02;;;;;;;12.63;8.33;;;1.40;97.30;;;;;;4904348;29;20798;-72
2021/01/29 14:39:30;;;;;;;17.90;9.03;;;1.40;97.30;;;;;;4919031;29;20512;-72
2021/01/29 14:42:18;;;;;;;17.90;9.97;;;1.40;97.30;;;;;;4918599;29;20946;-72
2021/01/29 14:44:57;;;;;;;16.60;9.17;;;1.50;97.30;;;;;;4919213;29;20420;-72
2021/01/29 14:47:42;;;;;;;17.50;9.23;;;1.50;97.30;;;;;;4919890;29;20425;-73
2021/01/29 14:50:26;;;;;;;14.00;7.87;;;1.50;97.30;;;;;;4919526;29;20432;-71
2021/01/29 14:53:10;;;;;;;16.40;9.10;;;1.40;97.30;;;;;;4919025;29;20428;-73
2021/01/29 14:55:50;;;;;;;16.00;9.00;;;1.40;97.30;;;;;;4918402;29;20468;-72
2021/01/29 14:58:19;;;;;;;16.90;9.10;;;1.40;97.30;;;;;;4919769;29;20447;-72
2021/01/29 15:00:47;;;;;;;13.43;7.90;;;1.40;97.30;;;;;;4918782;29;20437;-73
2021/01/29 15:03:41;;;;;;;15.93;8.37;;;1.40;97.30;;;;;;4919262;29;20417;-74
2021/01/29 15:06:07;;;;;;;14.40;8.03;;;1.40;97.30;;;;;;4924176;29;20452;-73
2021/01/29 15:08:37;;;;;;;15.63;9.37;;;1.40;97.30;;;;;;4921261;29;20417;-73
2021/01/29 15:11:13;;;;;;;14.10;8.60;;;1.40;97.30;;;;;;4918117;29;20492;-76
2021/01/29 15:14:25;;;;;;;14.20;8.00;;;1.40;97.30;;;;;;4937140;29;20517;-73
2021/01/29 15:16:52;;;;;;;15.80;8.90;;;1.30;97.30;;;;;;4935940;29;20507;-73
2021/01/29 15:19:26;;;;;;;18.93;9.90;;;1.30;97.30;;;;;;4938231;29;20400;-72
2021/01/29 15:22:15;;;;;;;16.33;9.30;;;1.30;97.30;;;;;;4937088;29;20879;-72
2021/01/29 15:24:48;;;;;;;16.10;8.93;;;1.30;97.30;;;;;;4936705;29;20503;-73
2021/01/29 15:27:22;;;;;;;19.93;9.63;;;1.30;97.30;;;;;;4921723;29;20440;-72
2021/01/29 15:29:54;;;;;;;16.73;9.10;;;1.30;97.30;;;;;;4916577;29;20416;-73
2021/01/29 15:32:35;;;;;;;16.50;9.57;;;1.30;97.30;;;;;;4917560;29;20548;-72
2021/01/29 15:35:09;;;;;;;14.13;9.20;;;1.30;97.30;;;;;;4917510;29;20807;-72
2021/01/29 15:37:49;;;;;;;16.20;9.03;;;1.30;97.30;;;;;;4915503;29;20408;-72
2021/01/29 15:40:18;;;;;;;16.83;9.87;;;1.20;97.30;;;;;;4911765;29;20531;-72
2021/01/29 15:42:44;;;;;;;21.07;10.73;;;1.20;97.30;;;;;;4918216;29;20425;-72
2021/01/29 15:45:09;;;;;;;20.13;11.23;;;1.20;97.30;;;;;;4917288;29;20592;-72
2021/01/29 15:47:53;;;;;;;22.93;11.90;;;1.20;97.30;;;;;;4917866;29;20168;-72
2021/01/29 15:50:56;;;;;;;24.77;13.27;;;1.20;97.30;;;;;;4914373;29;20169;-73
2021/01/29 15:53:43;;;;;;;35.00;15.90;;;1.20;97.30;;;;;;4914269;29;20466;-72
2021/01/29 15:56:35;;;;;;;37.33;19.80;;;1.20;97.30;;;;;;4915956;29;20451;-71
2021/01/29 15:59:17;;;;;;;43.00;21.07;;;1.20;97.30;;;;;;4917302;29;20423;-72
2021/01/29 16:01:46;;;;;;;33.97;14.90;;;1.20;97.30;;;;;;4918780;29;20445;-72
2021/01/29 16:04:20;;;;;;;21.80;11.77;;;1.20;97.30;;;;;;4916248;29;20420;-72
2021/01/29 16:06:52;;;;;;;18.53;11.27;;;1.20;97.30;;;;;;4918073;29;20412;-70
2021/01/29 16:09:29;;;;;;;21.43;10.40;;;1.10;97.30;;;;;;4916877;29;20780;-71
2021/01/29 16:11:55;;;;;;;26.87;12.37;;;1.10;97.30;;;;;;4911691;29;20467;-72
2021/01/29 16:14:26;;;;;;;39.47;18.57;;;1.10;97.30;;;;;;4917475;29;20807;-74
2021/01/29 16:17:06;;;;;;;179.10;56.40;;;1.10;97.30;;;;;;4917035;29;20507;-72
2021/01/29 16:19:32;;;;;;;164.90;54.17;;;1.20;97.30;;;;;;4917577;29;20512;-73
2021/01/29 16:22:08;;;;;;;112.97;37.47;;;1.20;97.30;;;;;;4917294;29;20523;-75
2021/01/29 16:24:44;;;;;;;82.50;28.97;;;1.20;97.30;;;;;;4918675;29;20431;-73
2021/01/29 16:27:23;;;;;;;47.50;21.57;;;1.20;97.30;;;;;;4916186;29;20459;-74
2021/01/29 16:29:49;;;;;;;42.13;19.67;;;1.20;97.30;;;;;;4916208;29;20839;-70
2021/01/29 16:32:21;;;;;;;35.37;17.27;;;1.20;97.30;;;;;;4917196;29;20523;-71
2021/01/29 16:34:46;;;;;;;34.10;16.27;;;1.10;97.30;;;;;;4917364;29;20459;-72
2021/01/29 16:37:15;;;;;;;33.13;16.80;;;1.20;97.30;;;;;;4914498;29;20447;-72
2021/01/29 16:39:46;;;;;;;40.23;18.70;;;1.10;97.30;;;;;;4918477;29;20659;-74
2021/01/29 16:42:28;;;;;;;40.87;16.90;;;1.10;97.30;;;;;;4916109;29;20437;-73
2021/01/29 16:45:03;;;;;;;45.77;21.20;;;1.10;97.30;;;;;;4916739;29;20425;-73
2021/01/29 16:47:41;;;;;;;51.30;23.40;;;1.10;97.30;;;;;;4916573;29;20424;-73
2021/01/29 16:50:13;;;;;;;51.23;21.97;;;1.20;97.30;;;;;;4920886;29;20459;-74
2021/01/29 16:52:42;;;;;;;44.27;19.93;;;1.20;97.30;;;;;;4936138;29;20422;-74
2021/01/29 16:55:19;;;;;;;35.03;17.83;;;1.20;97.30;;;;;;4936337;29;20430;-74
2021/01/29 16:57:48;;;;;;;27.70;14.07;;;1.20;97.30;;;;;;4926531;29;20951;-75
2021/01/29 17:00:16;;;;;;;26.67;13.80;;;1.20;97.30;;;;;;4915838;29;20420;-76
2021/01/29 17:02:45;;;;;;;27.13;13.70;;;1.20;97.30;;;;;;4915667;29;20951;-76
2021/01/29 17:05:13;;;;;;;31.77;13.70;;;1.20;97.30;;;;;;4906998;29;20576;-73
2021/01/29 17:07:44;;;;;;;31.07;14.30;;;1.10;97.30;;;;;;4917605;29;20421;-76
2021/01/29 17:10:30;;;;;;;23.77;13.00;;;1.10;97.30;;;;;;4918876;29;20417;-76
2021/01/29 17:13:03;;;;;;;21.93;12.23;;;1.10;97.30;;;;;;4915877;29;20420;-74
2021/01/29 17:15:32;;;;;;;21.90;11.67;;;1.10;97.30;;;;;;4913626;29;20417;-71
2021/01/29 17:18:01;;;;;;;25.70;13.17;;;1.10;97.30;;;;;;4900340;29;20437;-71
2021/01/29 17:20:29;;;;;;;27.60;13.03;;;1.10;97.30;;;;;;4915885;29;20516;-70
2021/01/29 17:23:10;;;;;;;25.03;12.63;;;1.10;97.30;;;;;;4916062;29;20458;-71
2021/01/29 17:25:54;;;;;;;26.47;13.90;;;1.20;97.30;;;;;;4918294;29;20409;-71
2021/01/29 17:28:27;;;;;;;25.53;12.80;;;1.20;97.30;;;;;;4897031;29;20437;-71
2021/01/29 17:30:54;;;;;;;25.50;11.47;;;1.20;97.30;;;;;;4896934;29;20437;-72
2021/01/29 17:33:32;;;;;;;27.03;14.23;;;1.20;97.30;;;;;;4898034;29;20468;-71
2021/01/29 17:36:17;;;;;;;27.17;13.40;;;1.20;97.30;;;;;;4897021;29;20459;-71
2021/01/29 17:38:43;;;;;;;25.10;13.63;;;1.20;97.30;;;;;;4897261;29;20453;-71
2021/01/29 17:41:29;;;;;;;32.10;14.87;;;1.20;97.30;;;;;;4897628;29;20439;-72
2021/01/29 17:44:08;;;;;;;32.80;14.80;;;1.10;97.30;;;;;;4901193;29;20205;-71
2021/01/29 17:46:34;;;;;;;27.43;13.57;;;1.10;97.30;;;;;;4900412;29;20433;-71
2021/01/29 17:49:27;;;;;;;32.93;14.73;;;1.20;97.30;;;;;;4897996;29;20421;-72
2021/01/29 17:52:11;;;;;;;33.23;15.30;;;1.10;97.30;;;;;;4914499;29;20853;-71
2021/01/29 17:54:42;;;;;;;25.20;13.63;;;1.20;97.30;;;;;;4915711;29;20468;-71
2021/01/29 17:57:35;;;;;;;31.80;14.83;;;1.20;97.30;;;;;;4916241;29;20475;-72
2021/01/29 18:00:05;;;;;;;32.13;14.73;;;1.20;97.30;;;;;;4913153;29;20861;-71
2021/01/29 18:02:32;;;;;;;32.13;14.37;;;1.10;97.30;;;;;;4915572;29;20457;-72
2021/01/29 18:05:21;;;;;;;35.23;16.40;;;1.10;97.30;;;;;;4915545;29;20440;-72
2021/01/29 18:08:04;;;;;;;34.63;16.50;;;1.20;97.30;;;;;;4911862;29;20439;-71
2021/01/29 18:10:35;;;;;;;36.13;16.53;;;1.20;97.30;;;;;;4915784;29;20446;-71
2021/01/29 18:13:04;;;;;;;29.63;14.67;;;1.20;97.30;;;;;;4916579;29;20475;-72
2021/01/29 18:15:55;;;;;;;31.00;15.13;;;1.20;97.30;;;;;;4917093;29;20421;-71
2021/01/29 18:18:34;;;;;;;38.27;15.90;;;1.20;97.30;;;;;;4915135;29;20443;-71
2021/01/29 18:21:15;;;;;;;43.80;18.47;;;1.20;97.30;;;;;;4914440;29;20488;-72
2021/01/29 18:23:44;;;;;;;56.07;22.23;;;1.20;97.30;;;;;;4915107;29;20432;-72
2021/01/29 18:26:14;;;;;;;57.07;24.10;;;1.20;97.30;;;;;;4915733;29;20432;-72
2021/01/29 18:28:40;;;;;;;60.13;24.90;;;1.20;97.30;;;;;;4915653;29;20843;-71
2021/01/29 18:31:08;;;;;;;55.43;22.83;;;1.20;97.30;;;;;;4916231;29;20436;-71
2021/01/29 18:33:44;;;;;;;53.60;22.90;;;1.10;97.30;;;;;;4916399;29;20499;-71
2021/01/29 18:36:14;;;;;;;44.90;19.00;;;1.10;97.30;;;;;;4916284;29;20424;-71
2021/01/29 18:38:41;;;;;;;37.87;18.87;;;1.10;97.30;;;;;;4918499;29;20416;-71
2021/01/29 18:41:08;;;;;;;40.63;19.90;;;1.10;97.30;;;;;;4918194;29;20855;-72
2021/01/29 18:43:34;;;;;;;43.73;18.57;;;1.10;97.30;;;;;;4920037;29;20443;-71
2021/01/29 18:45:59;;;;;;;41.70;18.63;;;1.10;97.30;;;;;;4919798;29;20793;-72
2021/01/29 18:48:25;;;;;;;49.87;20.90;;;1.10;97.30;;;;;;4919706;29;20858;-71
2021/01/29 18:50:52;;;;;;;40.17;18.93;;;1.10;97.30;;;;;;4918789;29;20200;-71
2021/01/29 18:53:20;;;;;;;43.60;18.07;;;1.10;97.30;;;;;;4918344;29;20474;-71
2021/01/29 18:55:46;;;;;;;49.90;19.57;;;1.10;97.30;;;;;;4918248;29;20422;-71
2021/01/29 18:58:12;;;;;;;46.87;19.10;;;1.10;97.30;;;;;;4918703;29;20432;-70
2021/01/29 19:00:37;;;;;;;47.27;19.23;;;1.10;97.30;;;;;;4919207;29;20276;-72
2021/01/29 19:03:04;;;;;;;49.10;20.77;;;1.10;97.30;;;;;;4919588;29;20963;-71
2021/01/29 19:05:31;;;;;;;51.97;18.83;;;1.10;97.30;;;;;;4918972;29;20216;-71
2021/01/29 19:07:59;;;;;;;53.13;18.70;;;1.10;97.30;;;;;;4918186;29;20797;-71
2021/01/29 19:10:27;;;;;;;53.37;20.00;;;1.10;97.30;;;;;;4917896;29;20428;-71
2021/01/29 19:12:54;;;;;;;49.30;19.00;;;1.10;97.30;;;;;;4918324;29;21027;-71
2021/01/29 19:15:21;;;;;;;52.50;20.20;;;1.10;97.30;;;;;;4919053;29;20746;-72
2021/01/29 19:17:47;;;;;;;53.57;17.90;;;1.10;97.30;;;;;;4917651;29;20424;-71
2021/01/29 19:20:19;;;;;;;50.97;19.90;;;1.10;97.30;;;;;;4919647;29;20409;-71
2021/01/29 19:22:45;;;;;;;49.30;19.50;;;1.10;97.30;;;;;;4918866;29;20413;-72
2021/01/29 19:25:12;;;;;;;53.07;20.13;;;1.10;97.30;;;;;;4919069;29;20766;-72
2021/01/29 19:27:37;;;;;;;50.07;19.30;;;1.10;97.30;;;;;;4919546;29;20260;-71
2021/01/29 19:30:05;;;;;;;51.53;19.20;;;1.20;97.30;;;;;;4918651;29;20993;-71
2021/01/29 19:32:31;;;;;;;57.47;21.30;;;1.20;97.30;;;;;;4937764;29;20666;-71
2021/01/29 19:34:58;;;;;;;53.93;21.53;;;1.20;97.30;;;;;;4937036;29;20470;-71
2021/01/29 19:37:25;;;;;;;50.57;20.00;;;1.20;97.30;;;;;;4937747;29;20647;-72
2021/01/29 19:39:51;;;;;;;48.50;19.80;;;1.20;97.30;;;;;;4919900;29;20472;-71
2021/01/29 19:42:17;;;;;;;43.60;18.03;;;1.20;97.30;;;;;;4917008;29;20437;-71